sensor_id;sensor_type;location;lat;lon;timestamp;pressure;altitude;pressure_sealevel;temperature;humidity
68807;BME280;55800;54.272;18.558;2022-09-09T00:01:04;100729.75;;;14.85;47.91
68807;BME280;55800;54.272;18.558;2022-09-09T00:03:40;100725.31;;;14.84;47.63
68807;BME280;55800;54.272;18.558;2022-09-09T00:06:21;100721.84;;;14.82;47.87
68807;BME280;55800;54.272;18.558;2022-09-09T00:09:00;100730.88;;;14.81;48.07
68807;BME280;55800;54.272;18.558;2022-09-09T00:11:36;100721.06;;;14.80;48.02
68807;BME280;55800;54.272;18.558;2022-09-09T00:14:16;100730.97;;;14.79;48.12
68807;BME280;55800;54.272;18.558;2022-09-09T00:16:52;100723.84;;;14.78;48.00
68807;BME280;55800;54.272;18.558;2022-09-09T00:19:28;100713.16;;;14.77;48.26
68807;BME280;55800;54.272;18.558;2022-09-09T00:22:07;100712.28;;;14.76;48.16
68807;BME280;55800;54.272;18.558;2022-09-09T00:24:44;100726.72;;;14.75;48.28
68807;BME280;55800;54.272;18.558;2022-09-09T00:27:19;100714.09;;;14.76;48.19
68807;BME280;55800;54.272;18.558;2022-09-09T00:29:53;100714.19;;;14.74;48.44
68807;BME280;55800;54.272;18.558;2022-09-09T00:32:29;100723.16;;;14.75;48.25
68807;BME280;55800;54.272;18.558;2022-09-09T00:35:03;100716.03;;;14.74;48.38
68807;BME280;55800;54.272;18.558;2022-09-09T00:37:32;100716.13;;;14.72;48.58
68807;BME280;55800;54.272;18.558;2022-09-09T00:40:15;100706.31;;;14.71;48.34
68807;BME280;55800;54.272;18.558;2022-09-09T00:42:49;100706.31;;;14.71;48.36
68807;BME280;55800;54.272;18.558;2022-09-09T00:45:37;100708.13;;;14.71;48.31
68807;BME280;55800;54.272;18.558;2022-09-09T00:48:12;100708.13;;;14.71;48.57
68807;BME280;55800;54.272;18.558;2022-09-09T00:50:49;100712.56;;;14.72;48.54
68807;BME280;55800;54.272;18.558;2022-09-09T00:53:32;100707.16;;;14.72;48.49
68807;BME280;55800;54.272;18.558;2022-09-09T00:56:13;100708.03;;;14.72;48.56
68807;BME280;55800;54.272;18.558;2022-09-09T00:58:46;100708.91;;;14.73;48.66
68807;BME280;55800;54.272;18.558;2022-09-09T01:01:18;100707.94;;;14.74;48.84
68807;BME280;55800;54.272;18.558;2022-09-09T01:03:51;100711.59;;;14.73;48.75
68807;BME280;55800;54.272;18.558;2022-09-09T01:06:29;100707.94;;;14.74;48.78
68807;BME280;55800;54.272;18.558;2022-09-09T01:09:14;100711.50;;;14.74;48.66
68807;BME280;55800;54.272;18.558;2022-09-09T01:11:57;100703.44;;;14.74;48.54
68807;BME280;55800;54.272;18.558;2022-09-09T01:14:40;100700.75;;;14.74;48.65
68807;BME280;55800;54.272;18.558;2022-09-09T01:17:15;100704.31;;;14.75;48.66
68807;BME280;55800;54.272;18.558;2022-09-09T01:20:06;100704.41;;;14.73;48.73
68807;BME280;55800;54.272;18.558;2022-09-09T01:26:09;100708.91;;;14.73;48.71
68807;BME280;55800;54.272;18.558;2022-09-09T01:28:44;100714.31;;;14.73;48.83
68807;BME280;55800;54.272;18.558;2022-09-09T01:31:19;100708.03;;;14.72;48.90
68807;BME280;55800;54.272;18.558;2022-09-09T01:33:49;100713.44;;;14.72;48.86
68807;BME280;55800;54.272;18.558;2022-09-09T01:36:24;100708.03;;;14.72;48.78
68807;BME280;55800;54.272;18.558;2022-09-09T01:38:55;100707.25;;;14.70;48.95
68807;BME280;55800;54.272;18.558;2022-09-09T01:41:26;100706.38;;;14.70;48.74
68807;BME280;55800;54.272;18.558;2022-09-09T01:44:02;100709.06;;;14.70;48.93
68807;BME280;55800;54.272;18.558;2022-09-09T01:46:34;100710.84;;;14.71;48.78
68807;BME280;55800;54.272;18.558;2022-09-09T01:49:06;100709.06;;;14.70;48.90
68807;BME280;55800;54.272;18.558;2022-09-09T01:51:37;100708.13;;;14.71;49.04
68807;BME280;55800;54.272;18.558;2022-09-09T01:54:11;100705.44;;;14.71;48.98
68807;BME280;55800;54.272;18.558;2022-09-09T01:56:51;100704.56;;;14.70;48.97
68807;BME280;55800;54.272;18.558;2022-09-09T01:59:35;100709.06;;;14.70;48.85
68807;BME280;55800;54.272;18.558;2022-09-09T02:02:11;100702.84;;;14.69;48.87
68807;BME280;55800;54.272;18.558;2022-09-09T02:04:50;100700.16;;;14.69;48.90
68807;BME280;55800;54.272;18.558;2022-09-09T02:07:33;100707.38;;;14.69;48.89
68807;BME280;55800;54.272;18.558;2022-09-09T02:10:15;100702.84;;;14.69;49.11
68807;BME280;55800;54.272;18.558;2022-09-09T02:12:59;100705.53;;;14.69;49.08
68807;BME280;55800;54.272;18.558;2022-09-09T02:15:35;100704.66;;;14.69;49.04
68807;BME280;55800;54.272;18.558;2022-09-09T02:18:09;100707.38;;;14.69;49.18
68807;BME280;55800;54.272;18.558;2022-09-09T02:20:42;100707.38;;;14.69;49.15
68807;BME280;55800;54.272;18.558;2022-09-09T02:23:13;100707.38;;;14.69;49.27
68807;BME280;55800;54.272;18.558;2022-09-09T02:25:47;100709.19;;;14.68;49.24
68807;BME280;55800;54.272;18.558;2022-09-09T02:28:25;100695.72;;;14.68;49.25
68807;BME280;55800;54.272;18.558;2022-09-09T02:30:57;100700.22;;;14.68;49.29
68807;BME280;55800;54.272;18.558;2022-09-09T02:33:37;100708.31;;;14.68;49.01
68807;BME280;55800;54.272;18.558;2022-09-09T02:36:09;100711.00;;;14.68;49.28
68807;BME280;55800;54.272;18.558;2022-09-09T02:38:45;100705.63;;;14.68;49.30
68807;BME280;55800;54.272;18.558;2022-09-09T02:41:22;100705.63;;;14.68;49.27
68807;BME280;55800;54.272;18.558;2022-09-09T02:43:56;100702.91;;;14.68;49.22
68807;BME280;55800;54.272;18.558;2022-09-09T02:46:36;100698.50;;;14.67;49.30
68807;BME280;55800;54.272;18.558;2022-09-09T02:49:11;100703.91;;;14.67;49.32
68807;BME280;55800;54.272;18.558;2022-09-09T02:51:50;100703.00;;;14.66;49.22
68807;BME280;55800;54.272;18.558;2022-09-09T02:54:26;100712.91;;;14.66;49.13
68807;BME280;55800;54.272;18.558;2022-09-09T02:57:06;100716.56;;;14.65;49.21
68807;BME280;55800;54.272;18.558;2022-09-09T02:59:40;100718.38;;;14.64;49.17
68807;BME280;55800;54.272;18.558;2022-09-09T03:02:09;100734.53;;;14.64;49.29
68807;BME280;55800;54.272;18.558;2022-09-09T03:04:41;100729.25;;;14.63;49.28
68807;BME280;55800;54.272;18.558;2022-09-09T03:07:13;100730.19;;;14.62;49.20
68807;BME280;55800;54.272;18.558;2022-09-09T03:09:44;100734.63;;;14.63;49.16
68807;BME280;55800;54.272;18.558;2022-09-09T03:12:13;100740.06;;;14.61;49.35
68807;BME280;55800;54.272;18.558;2022-09-09T03:14:44;100744.59;;;14.61;49.14
68807;BME280;55800;54.272;18.558;2022-09-09T03:17:15;100744.66;;;14.59;49.09
68807;BME280;55800;54.272;18.558;2022-09-09T03:19:53;100755.44;;;14.59;49.32
68807;BME280;55800;54.272;18.558;2022-09-09T03:22:23;100759.09;;;14.58;49.67
68807;BME280;55800;54.272;18.558;2022-09-09T03:24:54;100766.28;;;14.58;49.64
68807;BME280;55800;54.272;18.558;2022-09-09T03:27:24;100763.75;;;14.55;49.76
68807;BME280;55800;54.272;18.558;2022-09-09T03:29:55;100778.19;;;14.54;49.64
68807;BME280;55800;54.272;18.558;2022-09-09T03:32:27;100775.66;;;14.51;49.89
68807;BME280;55800;54.272;18.558;2022-09-09T03:34:57;100778.53;;;14.48;49.94
68807;BME280;55800;54.272;18.558;2022-09-09T03:37:26;100775.13;;;14.44;49.62
68807;BME280;55800;54.272;18.558;2022-09-09T03:39:55;100787.00;;;14.40;49.72
68807;BME280;55800;54.272;18.558;2022-09-09T03:42:24;100791.69;;;14.37;49.72
68807;BME280;55800;54.272;18.558;2022-09-09T03:44:57;100784.75;;;14.33;49.91
68807;BME280;55800;54.272;18.558;2022-09-09T03:47:27;100775.00;;;14.30;49.88
68807;BME280;55800;54.272;18.558;2022-09-09T03:50:04;100779.66;;;14.27;49.97
68807;BME280;55800;54.272;18.558;2022-09-09T03:52:38;100773.56;;;14.23;49.80
68807;BME280;55800;54.272;18.558;2022-09-09T03:55:13;100771.06;;;14.20;49.83
68807;BME280;55800;54.272;18.558;2022-09-09T03:57:42;100789.16;;;14.17;49.97
68807;BME280;55800;54.272;18.558;2022-09-09T04:00:14;100775.91;;;14.14;49.97
68807;BME280;55800;54.272;18.558;2022-09-09T04:02:44;100779.63;;;14.11;49.87
68807;BME280;55800;54.272;18.558;2022-09-09T04:05:16;100773.56;;;14.07;49.98
68807;BME280;55800;54.272;18.558;2022-09-09T04:07:47;100779.97;;;14.05;49.84
68807;BME280;55800;54.272;18.558;2022-09-09T04:10:16;100778.28;;;14.02;49.89
68807;BME280;55800;54.272;18.558;2022-09-09T04:12:45;100781.16;;;13.99;49.87
68807;BME280;55800;54.272;18.558;2022-09-09T04:15:18;100775.06;;;13.96;49.86
68807;BME280;55800;54.272;18.558;2022-09-09T04:17:47;100780.53;;;13.94;49.99
68807;BME280;55800;54.272;18.558;2022-09-09T04:20:17;100786.00;;;13.93;49.98
68807;BME280;55800;54.272;18.558;2022-09-09T04:22:47;100782.56;;;13.89;49.90
68807;BME280;55800;54.272;18.558;2022-09-09T04:25:16;100781.78;;;13.87;50.02
68807;BME280;55800;54.272;18.558;2022-09-09T04:27:45;100778.31;;;13.85;50.09
68807;BME280;55800;54.272;18.558;2022-09-09T04:30:16;100782.91;;;13.83;50.25
68807;BME280;55800;54.272;18.558;2022-09-09T04:32:46;100783.88;;;13.82;50.08
68807;BME280;55800;54.272;18.558;2022-09-09T04:35:15;100781.25;;;13.81;50.10
68807;BME280;55800;54.272;18.558;2022-09-09T04:37:45;100782.28;;;13.78;50.10
68807;BME280;55800;54.272;18.558;2022-09-09T04:40:15;100780.53;;;13.77;50.03
68807;BME280;55800;54.272;18.558;2022-09-09T04:42:45;100779.75;;;13.75;50.21
68807;BME280;55800;54.272;18.558;2022-09-09T04:45:17;100783.38;;;13.74;50.10
68807;BME280;55800;54.272;18.558;2022-09-09T04:47:46;100789.72;;;13.73;50.02
68807;BME280;55800;54.272;18.558;2022-09-09T04:50:16;100783.56;;;13.71;50.02
68807;BME280;55800;54.272;18.558;2022-09-09T04:52:47;100786.25;;;13.71;50.13
68807;BME280;55800;54.272;18.558;2022-09-09T04:55:16;100784.50;;;13.70;50.20
68807;BME280;55800;54.272;18.558;2022-09-09T04:57:46;100789.88;;;13.70;50.33
68807;BME280;55800;54.272;18.558;2022-09-09T05:00:17;100787.25;;;13.69;50.39
68807;BME280;55800;54.272;18.558;2022-09-09T05:02:49;100789.94;;;13.69;50.35
68807;BME280;55800;54.272;18.558;2022-09-09T05:05:18;100791.84;;;13.67;50.43
68807;BME280;55800;54.272;18.558;2022-09-09T05:07:49;100795.41;;;13.67;50.63
68807;BME280;55800;54.272;18.558;2022-09-09T05:10:17;100796.34;;;13.66;50.91
68807;BME280;55800;54.272;18.558;2022-09-09T05:12:52;100790.97;;;13.66;51.15
68807;BME280;55800;54.272;18.558;2022-09-09T05:15:26;100800.06;;;13.64;51.05
68807;BME280;55800;54.272;18.558;2022-09-09T05:17:57;100793.91;;;13.62;51.16
68807;BME280;55800;54.272;18.558;2022-09-09T05:20:30;100793.09;;;13.60;51.04
68807;BME280;55800;54.272;18.558;2022-09-09T05:22:59;100793.19;;;13.58;51.08
68807;BME280;55800;54.272;18.558;2022-09-09T05:25:30;100798.66;;;13.57;51.19
68807;BME280;55800;54.272;18.558;2022-09-09T05:27:59;100798.72;;;13.55;50.99
68807;BME280;55800;54.272;18.558;2022-09-09T05:30:30;100790.81;;;13.52;51.01
68807;BME280;55800;54.272;18.558;2022-09-09T05:33:01;100798.97;;;13.51;51.07
68807;BME280;55800;54.272;18.558;2022-09-09T05:35:30;100794.63;;;13.48;51.16
68807;BME280;55800;54.272;18.558;2022-09-09T05:38:00;100794.69;;;13.47;51.14
68807;BME280;55800;54.272;18.558;2022-09-09T05:40:29;100793.03;;;13.44;51.16
68807;BME280;55800;54.272;18.558;2022-09-09T05:43:00;100798.47;;;13.43;51.18
68807;BME280;55800;54.272;18.558;2022-09-09T05:45:32;100800.38;;;13.41;51.08
68807;BME280;55800;54.272;18.558;2022-09-09T05:48:01;100802.22;;;13.40;51.21
68807;BME280;55800;54.272;18.558;2022-09-09T05:50:30;100794.28;;;13.37;50.88
68807;BME280;55800;54.272;18.558;2022-09-09T05:52:59;100805.97;;;13.36;51.05
68807;BME280;55800;54.272;18.558;2022-09-09T05:55:30;100805.13;;;13.36;51.21
68807;BME280;55800;54.272;18.558;2022-09-09T05:57:59;100812.28;;;13.35;51.52
68807;BME280;55800;54.272;18.558;2022-09-09T06:00:28;100801.56;;;13.35;51.68
68807;BME280;55800;54.272;18.558;2022-09-09T06:03:01;100808.81;;;13.33;51.63
68807;BME280;55800;54.272;18.558;2022-09-09T06:05:31;100803.53;;;13.32;51.60
68807;BME280;55800;54.272;18.558;2022-09-09T06:08:00;100806.28;;;13.30;51.22
68807;BME280;55800;54.272;18.558;2022-09-09T06:10:29;100814.50;;;13.27;51.49
68807;BME280;55800;54.272;18.558;2022-09-09T06:12:58;100807.38;;;13.26;51.49
68807;BME280;55800;54.272;18.558;2022-09-09T06:15:27;100811.94;;;13.24;51.53
68807;BME280;55800;54.272;18.558;2022-09-09T06:17:59;100807.53;;;13.23;51.60
68807;BME280;55800;54.272;18.558;2022-09-09T06:20:28;100812.97;;;13.21;51.63
68807;BME280;55800;54.272;18.558;2022-09-09T06:22:59;100812.13;;;13.21;51.58
68807;BME280;55800;54.272;18.558;2022-09-09T06:25:28;100820.31;;;13.18;51.60
68807;BME280;55800;54.272;18.558;2022-09-09T06:27:57;100822.13;;;13.17;51.71
68807;BME280;55800;54.272;18.558;2022-09-09T06:30:26;100823.13;;;13.15;51.60
68807;BME280;55800;54.272;18.558;2022-09-09T06:32:56;100823.22;;;13.13;51.74
68807;BME280;55800;54.272;18.558;2022-09-09T06:35:27;100813.44;;;13.12;51.55
68807;BME280;55800;54.272;18.558;2022-09-09T06:37:56;100818.03;;;13.10;51.68
68807;BME280;55800;54.272;18.558;2022-09-09T06:40:26;100827.00;;;13.09;51.60
68807;BME280;55800;54.272;18.558;2022-09-09T06:42:58;100820.84;;;13.07;51.65
68807;BME280;55800;54.272;18.558;2022-09-09T06:45:39;100822.66;;;13.07;51.68
68807;BME280;55800;54.272;18.558;2022-09-09T06:48:08;100820.94;;;13.06;51.63
68807;BME280;55800;54.272;18.558;2022-09-09T06:50:39;100830.78;;;13.05;51.86
68807;BME280;55800;54.272;18.558;2022-09-09T06:53:08;100833.53;;;13.04;51.65
68807;BME280;55800;54.272;18.558;2022-09-09T06:55:37;100839.81;;;13.03;51.70
68807;BME280;55800;54.272;18.558;2022-09-09T06:58:08;100838.09;;;13.02;51.74
68807;BME280;55800;54.272;18.558;2022-09-09T07:00:38;100838.09;;;13.02;51.73
68807;BME280;55800;54.272;18.558;2022-09-09T07:03:07;100841.72;;;13.01;51.89
68807;BME280;55800;54.272;18.558;2022-09-09T07:05:38;100838.22;;;12.99;51.58
68807;BME280;55800;54.272;18.558;2022-09-09T07:08:07;100836.47;;;12.98;51.74
68807;BME280;55800;54.272;18.558;2022-09-09T07:10:36;100840.13;;;12.97;51.79
68807;BME280;55800;54.272;18.558;2022-09-09T07:13:05;100838.38;;;12.96;51.93
68807;BME280;55800;54.272;18.558;2022-09-09T07:15:35;100836.63;;;12.95;51.75
68807;BME280;55800;54.272;18.558;2022-09-09T07:18:04;100842.00;;;12.95;51.83
68807;BME280;55800;54.272;18.558;2022-09-09T07:20:33;100834.88;;;12.94;51.77
68807;BME280;55800;54.272;18.558;2022-09-09T07:23:04;100842.88;;;12.95;52.17
68807;BME280;55800;54.272;18.558;2022-09-09T07:25:33;100843.81;;;12.94;52.23
68807;BME280;55800;54.272;18.558;2022-09-09T07:28:02;100850.13;;;12.93;51.94
68807;BME280;55800;54.272;18.558;2022-09-09T07:30:31;100844.81;;;12.92;52.04
68807;BME280;55800;54.272;18.558;2022-09-09T07:33:00;100847.50;;;12.92;52.21
68807;BME280;55800;54.272;18.558;2022-09-09T07:35:31;100845.78;;;12.91;52.18
68807;BME280;55800;54.272;18.558;2022-09-09T07:38:03;100850.28;;;12.90;52.31
68807;BME280;55800;54.272;18.558;2022-09-09T07:40:32;100846.72;;;12.90;52.24
68807;BME280;55800;54.272;18.558;2022-09-09T07:43:03;100844.91;;;12.90;52.23
68807;BME280;55800;54.272;18.558;2022-09-09T07:45:34;100854.75;;;12.90;52.29
68807;BME280;55800;54.272;18.558;2022-09-09T07:48:04;100848.56;;;12.89;52.66
68807;BME280;55800;54.272;18.558;2022-09-09T07:50:34;100849.47;;;12.88;52.56
68807;BME280;55800;54.272;18.558;2022-09-09T07:53:04;100853.03;;;12.89;52.46
68807;BME280;55800;54.272;18.558;2022-09-09T07:55:34;100840.53;;;12.88;52.47
68807;BME280;55800;54.272;18.558;2022-09-09T07:58:03;100844.19;;;12.87;52.51
68807;BME280;55800;54.272;18.558;2022-09-09T08:00:32;100849.56;;;12.87;52.49
68807;BME280;55800;54.272;18.558;2022-09-09T08:03:01;100854.06;;;12.86;52.37
68807;BME280;55800;54.272;18.558;2022-09-09T08:05:31;100850.47;;;12.86;52.25
68807;BME280;55800;54.272;18.558;2022-09-09T08:08:01;100853.16;;;12.86;52.46
68807;BME280;55800;54.272;18.558;2022-09-09T08:10:33;100868.41;;;12.85;52.54
68807;BME280;55800;54.272;18.558;2022-09-09T08:13:02;100867.53;;;12.85;52.70
68807;BME280;55800;54.272;18.558;2022-09-09T08:15:47;100863.91;;;12.86;52.72
68807;BME280;55800;54.272;18.558;2022-09-09T08:18:19;100867.47;;;12.86;52.77
68807;BME280;55800;54.272;18.558;2022-09-09T08:20:50;100862.97;;;12.87;52.81
68807;BME280;55800;54.272;18.558;2022-09-09T08:23:19;100872.75;;;12.88;52.81
68807;BME280;55800;54.272;18.558;2022-09-09T08:25:50;100871.81;;;12.89;52.72
68807;BME280;55800;54.272;18.558;2022-09-09T08:28:19;100875.38;;;12.89;52.97
68807;BME280;55800;54.272;18.558;2022-09-09T08:30:48;100873.53;;;12.90;52.95
68807;BME280;55800;54.272;18.558;2022-09-09T08:33:19;100881.53;;;12.91;53.03
68807;BME280;55800;54.272;18.558;2022-09-09T08:35:50;100862.75;;;12.91;52.97
68807;BME280;55800;54.272;18.558;2022-09-09T08:38:21;100873.41;;;12.93;53.16
68807;BME280;55800;54.272;18.558;2022-09-09T08:40:54;100873.41;;;12.93;53.18
68807;BME280;55800;54.272;18.558;2022-09-09T08:43:29;100866.16;;;12.95;53.21
68807;BME280;55800;54.272;18.558;2022-09-09T08:46:07;100878.50;;;12.99;53.28
68807;BME280;55800;54.272;18.558;2022-09-09T08:48:55;100873.91;;;13.01;53.29
68807;BME280;55800;54.272;18.558;2022-09-09T08:51:27;100877.34;;;13.04;53.54
68807;BME280;55800;54.272;18.558;2022-09-09T08:54:01;100883.47;;;13.08;53.70
68807;BME280;55800;54.272;18.558;2022-09-09T08:56:34;100877.91;;;13.11;54.04
68807;BME280;55800;54.272;18.558;2022-09-09T08:59:04;100879.59;;;13.13;53.89
68807;BME280;55800;54.272;18.558;2022-09-09T09:01:43;100883.06;;;13.15;53.81
68807;BME280;55800;54.272;18.558;2022-09-09T09:04:54;100880.31;;;13.17;53.87
68807;BME280;55800;54.272;18.558;2022-09-09T09:07:35;100881.13;;;13.19;54.14
68807;BME280;55800;54.272;18.558;2022-09-09T09:10:15;100877.41;;;13.21;54.07
68807;BME280;55800;54.272;18.558;2022-09-09T09:13:13;100879.97;;;13.24;54.30
68807;BME280;55800;54.272;18.558;2022-09-09T09:15:46;100874.50;;;13.26;54.60
68807;BME280;55800;54.272;18.558;2022-09-09T09:18:17;100877.06;;;13.29;54.68
68807;BME280;55800;54.272;18.558;2022-09-09T09:20:54;100879.56;;;13.32;54.58
68807;BME280;55800;54.272;18.558;2022-09-09T09:23:27;100879.50;;;13.34;54.29
68807;BME280;55800;54.272;18.558;2022-09-09T09:26:00;100882.91;;;13.37;54.75
68807;BME280;55800;54.272;18.558;2022-09-09T09:28:33;100884.66;;;13.38;54.88
68807;BME280;55800;54.272;18.558;2022-09-09T09:31:11;100884.59;;;13.40;54.74
68807;BME280;55800;54.272;18.558;2022-09-09T09:33:48;100885.38;;;13.42;54.77
68807;BME280;55800;54.272;18.558;2022-09-09T09:36:20;100890.75;;;13.42;54.64
68807;BME280;55800;54.272;18.558;2022-09-09T09:38:55;100891.53;;;13.44;54.65
68807;BME280;55800;54.272;18.558;2022-09-09T09:41:45;100896.81;;;13.45;54.70
68807;BME280;55800;54.272;18.558;2022-09-09T09:44:28;100898.59;;;13.46;54.59
68807;BME280;55800;54.272;18.558;2022-09-09T09:47:08;100887.84;;;13.46;54.53
68807;BME280;55800;54.272;18.558;2022-09-09T09:49:37;100894.94;;;13.47;54.91
68807;BME280;55800;54.272;18.558;2022-09-09T09:52:12;100891.22;;;13.50;54.83
68807;BME280;55800;54.272;18.558;2022-09-09T09:54:43;100889.44;;;13.50;54.66
68807;BME280;55800;54.272;18.558;2022-09-09T09:57:14;100893.03;;;13.49;54.68
68807;BME280;55800;54.272;18.558;2022-09-09T09:59:48;100887.66;;;13.49;54.67
68807;BME280;55800;54.272;18.558;2022-09-09T10:02:24;100884.97;;;13.49;54.54
68807;BME280;55800;54.272;18.558;2022-09-09T10:05:12;100891.16;;;13.51;54.61
68807;BME280;55800;54.272;18.558;2022-09-09T10:07:44;100883.88;;;13.53;54.50
68807;BME280;55800;54.272;18.558;2022-09-09T10:10:19;100887.34;;;13.55;54.51
68807;BME280;55800;54.272;18.558;2022-09-09T10:12:58;100882.78;;;13.57;54.48
68807;BME280;55800;54.272;18.558;2022-09-09T10:15:39;100881.72;;;13.61;54.73
68807;BME280;55800;54.272;18.558;2022-09-09T10:18:34;100882.41;;;13.65;54.55
68807;BME280;55800;54.272;18.558;2022-09-09T10:21:19;100884.97;;;13.68;54.80
68807;BME280;55800;54.272;18.558;2022-09-09T10:24:03;100888.44;;;13.70;54.69
68807;BME280;55800;54.272;18.558;2022-09-09T10:26:43;100890.06;;;13.72;54.80
68807;BME280;55800;54.272;18.558;2022-09-09T10:29:51;100881.00;;;13.75;54.63
68807;BME280;55800;54.272;18.558;2022-09-09T10:32:37;100888.97;;;13.76;54.82
68807;BME280;55800;54.272;18.558;2022-09-09T10:35:17;100894.19;;;13.79;54.86
68807;BME280;55800;54.272;18.558;2022-09-09T10:38:11;100896.75;;;13.82;54.75
68807;BME280;55800;54.272;18.558;2022-09-09T10:46:34;100897.38;;;13.87;54.86
68807;BME280;55800;54.272;18.558;2022-09-09T10:49:15;100891.94;;;13.89;54.91
68807;BME280;55800;54.272;18.558;2022-09-09T10:51:57;100892.72;;;13.91;54.86
68807;BME280;55800;54.272;18.558;2022-09-09T10:54:42;100881.88;;;13.92;54.75
68807;BME280;55800;54.272;18.558;2022-09-09T10:57:22;100889.84;;;13.94;54.85
68807;BME280;55800;54.272;18.558;2022-09-09T10:59:56;100896.03;;;13.96;54.55
68807;BME280;55800;54.272;18.558;2022-09-09T11:02:29;100878.97;;;13.97;54.88
68807;BME280;55800;54.272;18.558;2022-09-09T11:05:03;100891.28;;;14.01;54.74
68807;BME280;55800;54.272;18.558;2022-09-09T11:07:40;100892.09;;;14.03;55.01
68807;BME280;55800;54.272;18.558;2022-09-09T11:10:20;100891.91;;;14.06;55.02
68807;BME280;55800;54.272;18.558;2022-09-09T11:12:56;100898.00;;;14.09;55.15
68807;BME280;55800;54.272;18.558;2022-09-09T11:15:35;100891.63;;;14.12;55.01
68807;BME280;55800;54.272;18.558;2022-09-09T11:18:10;100898.63;;;14.15;54.91
68807;BME280;55800;54.272;18.558;2022-09-09T11:20:44;100895.00;;;14.16;54.99
68807;BME280;55800;54.272;18.558;2022-09-09T11:23:18;100897.53;;;14.19;55.09
68807;BME280;55800;54.272;18.558;2022-09-09T11:25:54;100896.50;;;14.21;54.97
68807;BME280;55800;54.272;18.558;2022-09-09T11:28:33;100903.53;;;14.24;54.92
68807;BME280;55800;54.272;18.558;2022-09-09T11:31:21;100897.13;;;14.26;55.07
68807;BME280;55800;54.272;18.558;2022-09-09T11:34:04;100903.25;;;14.30;55.03
68807;BME280;55800;54.272;18.558;2022-09-09T11:37:00;100901.34;;;14.32;55.09
68807;BME280;55800;54.272;18.558;2022-09-09T11:39:44;100899.44;;;14.34;55.17
68807;BME280;55800;54.272;18.558;2022-09-09T11:42:18;100904.66;;;14.37;55.16
68807;BME280;55800;54.272;18.558;2022-09-09T11:44:48;100905.53;;;14.37;55.19
68807;BME280;55800;54.272;18.558;2022-09-09T11:47:23;100906.34;;;14.39;55.24
68807;BME280;55800;54.272;18.558;2022-09-09T11:50:08;100909.03;;;14.39;55.14
68807;BME280;55800;54.272;18.558;2022-09-09T11:52:41;100911.72;;;14.39;54.96
68807;BME280;55800;54.272;18.558;2022-09-09T11:55:26;100914.31;;;14.41;54.92
68807;BME280;55800;54.272;18.558;2022-09-09T11:57:58;100912.50;;;14.41;55.07
68807;BME280;55800;54.272;18.558;2022-09-09T12:00:33;100913.38;;;14.42;55.11
68807;BME280;55800;54.272;18.558;2022-09-09T12:03:03;100913.38;;;14.42;55.03
68807;BME280;55800;54.272;18.558;2022-09-09T12:05:40;100909.72;;;14.43;54.95
68807;BME280;55800;54.272;18.558;2022-09-09T12:08:18;100911.53;;;14.42;54.91
68807;BME280;55800;54.272;18.558;2022-09-09T12:10:54;100909.72;;;14.43;54.96
68807;BME280;55800;54.272;18.558;2022-09-09T12:13:26;100921.34;;;14.43;55.06
68807;BME280;55800;54.272;18.558;2022-09-09T12:15:57;100920.47;;;14.43;55.11
68807;BME280;55800;54.272;18.558;2022-09-09T12:18:33;100920.47;;;14.43;54.93
68807;BME280;55800;54.272;18.558;2022-09-09T12:21:07;100925.94;;;14.41;54.92
68807;BME280;55800;54.272;18.558;2022-09-09T12:23:47;100918.75;;;14.42;55.01
68807;BME280;55800;54.272;18.558;2022-09-09T12:26:28;100919.69;;;14.41;54.92
68807;BME280;55800;54.272;18.558;2022-09-09T12:29:09;100919.78;;;14.39;55.02
68807;BME280;55800;54.272;18.558;2022-09-09T12:31:46;100918.91;;;14.39;54.94
68807;BME280;55800;54.272;18.558;2022-09-09T12:34:25;100918.03;;;14.38;55.00
68807;BME280;55800;54.272;18.558;2022-09-09T12:37:02;100915.44;;;14.37;55.10
68807;BME280;55800;54.272;18.558;2022-09-09T12:39:37;100921.75;;;14.36;54.94
68807;BME280;55800;54.272;18.558;2022-09-09T12:42:23;100924.44;;;14.36;55.15
68807;BME280;55800;54.272;18.558;2022-09-09T12:44:54;100922.72;;;14.35;55.17
68807;BME280;55800;54.272;18.558;2022-09-09T12:47:35;100925.41;;;14.35;55.06
68807;BME280;55800;54.272;18.558;2022-09-09T12:50:16;100916.53;;;14.33;54.94
68807;BME280;55800;54.272;18.558;2022-09-09T12:52:47;100922.84;;;14.32;55.08
68807;BME280;55800;54.272;18.558;2022-09-09T12:55:21;100925.53;;;14.32;55.05
68807;BME280;55800;54.272;18.558;2022-09-09T12:57:52;100921.91;;;14.33;55.02
68807;BME280;55800;54.272;18.558;2022-09-09T13:00:22;100919.31;;;14.31;54.79
68807;BME280;55800;54.272;18.558;2022-09-09T13:02:53;100929.13;;;14.32;55.33
68807;BME280;55800;54.272;18.558;2022-09-09T13:05:25;100919.22;;;14.33;55.29
68807;BME280;55800;54.272;18.558;2022-09-09T13:08:01;100920.09;;;14.33;55.26
68807;BME280;55800;54.272;18.558;2022-09-09T13:10:35;100909.34;;;14.33;55.23
68807;BME280;55800;54.272;18.558;2022-09-09T13:13:23;100915.56;;;14.34;55.39
68807;BME280;55800;54.272;18.558;2022-09-09T13:15:54;100912.88;;;14.34;55.39
68807;BME280;55800;54.272;18.558;2022-09-09T13:18:26;100914.72;;;14.33;55.39
68807;BME280;55800;54.272;18.558;2022-09-09T13:20:56;100908.47;;;14.33;55.70
68807;BME280;55800;54.272;18.558;2022-09-09T13:23:29;100912.88;;;14.34;55.43
68807;BME280;55800;54.272;18.558;2022-09-09T13:26:02;100911.16;;;14.33;55.32